Time;durP1;ratioP1;P1;durP2;ratioP2;P2;SDS_P1;SDS_P2;PMS_P1;PMS_P2;Temp;Humidity;BMP_temperature;BMP_pressure;BME280_temperature;BME280_humidity;BME280_pressure;Samples;Min_cycle;Max_cycle;Signal;HPM_P1;HPM_P2
2023/03/15 00:01:45;;;;;;;15.07;3.55;;;;;;;7.57;100.00;100720.25;5005743;28;20069;-79
2023/03/15 00:04:12;;;;;;;10.60;2.50;;;;;;;6.78;100.00;100713.34;5002325;28;20089;-80
2023/03/15 00:06:39;;;;;;;12.88;2.53;;;;;;;6.77;100.00;100716.47;5005497;28;20045;-77
2023/03/15 00:09:06;;;;;;;19.98;3.75;;;;;;;6.58;100.00;100719.34;5002166;28;20078;-77
2023/03/15 00:11:33;;;;;;;16.83;3.70;;;;;;;6.58;100.00;100720.13;5004126;28;20085;-79
2023/03/15 00:14:01;;;;;;;15.40;3.60;;;;;;;6.48;100.00;100723.50;5004507;28;20045;-78
2023/03/15 00:16:27;;;;;;;19.50;4.32;;;;;;;4.57;100.00;100720.22;5002084;28;20049;-80
2023/03/15 00:18:55;;;;;;;17.15;3.97;;;;;;;4.33;100.00;100723.16;5005307;28;20362;-79
2023/03/15 00:21:22;;;;;;;7.75;2.97;;;;;;;4.31;100.00;100730.94;5003957;28;20096;-77
2023/03/15 00:23:49;;;;;;;23.38;4.32;;;;;;;4.32;100.00;100732.50;5004387;28;20138;-79
2023/03/15 00:26:16;;;;;;;15.20;4.20;;;;;;;5.88;100.00;100745.66;5005518;28;20052;-82
2023/03/15 00:28:42;;;;;;;16.50;4.47;;;;;;;4.35;100.00;100737.28;4998372;28;20161;-78
2023/03/15 00:31:15;;;;;;;26.70;5.82;;;;;;;4.31;100.00;100744.63;5007438;28;20220;-76
2023/03/15 00:33:42;;;;;;;17.63;5.32;;;;;;;4.44;100.00;100737.09;5008237;28;20069;-78
2023/03/15 00:36:11;;;;;;;17.10;4.25;;;;;;;4.30;100.00;100739.50;4997228;28;20278;-78
2023/03/15 00:38:41;;;;;;;20.75;5.43;;;;;;;4.29;100.00;100744.19;5007812;28;20484;-78
2023/03/15 00:41:14;;;;;;;24.55;5.03;;;;;;;4.33;100.00;100744.28;5006141;28;20488;-78
2023/03/15 00:43:41;;;;;;;22.65;6.38;;;;;;;4.31;100.00;100744.63;5007642;28;20037;-76
2023/03/15 00:46:08;;;;;;;19.13;4.85;;;;;;;4.35;100.00;100753.72;5002309;28;20053;-81
2023/03/15 00:48:35;;;;;;;23.30;5.63;;;;;;;4.33;100.00;100758.78;5000214;28;20050;-78
2023/03/15 00:51:10;;;;;;;18.83;6.38;;;;;;;4.39;100.00;100756.56;5004722;28;20042;-80
2023/03/15 00:53:39;;;;;;;15.82;5.88;;;;;;;4.53;100.00;100765.13;5000631;28;20524;-77
2023/03/15 00:56:09;;;;;;;22.90;6.40;;;;;;;4.59;100.00;100759.00;5000940;28;21375;-77
2023/03/15 00:58:36;;;;;;;3.58;2.63;;;;;;;4.52;100.00;100766.28;5004224;28;20042;-77
2023/03/15 01:01:13;;;;;;;23.40;6.90;;;;;;;4.57;100.00;100758.56;5001658;28;20138;-77
2023/03/15 01:03:40;;;;;;;25.85;7.25;;;;;;;4.55;100.00;100763.59;4998014;28;20495;-77
2023/03/15 01:06:12;;;;;;;12.20;4.43;;;;;;;4.57;100.00;100758.56;5001963;28;20050;-78
2023/03/15 01:08:40;;;;;;;23.08;7.95;;;;;;;4.64;100.00;100753.25;5004335;28;20068;-81
2023/03/15 01:11:09;;;;;;;18.33;6.03;;;;;;;4.61;100.00;100769.59;5003825;28;20060;-79
2023/03/15 01:13:36;;;;;;;25.13;7.57;;;;;;;4.76;100.00;100764.09;5003897;28;20050;-75
2023/03/15 01:16:04;;;;;;;9.85;4.00;;;;;;;4.64;100.00;100761.47;5003881;28;20050;-79
2023/03/15 01:18:31;;;;;;;20.35;7.85;;;;;;;4.86;100.00;100760.03;4998657;28;20680;-76
2023/03/15 01:20:58;;;;;;;22.75;7.63;;;;;;;5.05;100.00;100765.53;5001770;28;20054;-77
2023/03/15 01:23:25;;;;;;;8.02;3.30;;;;;;;5.95;100.00;100767.75;5003608;28;20083;-78
2023/03/15 01:25:51;;;;;;;6.78;2.92;;;;;;;6.65;100.00;100768.94;5002708;28;20062;-77
2023/03/15 01:28:18;;;;;;;22.77;7.20;;;;;;;6.79;100.00;100769.16;5000920;28;20046;-77
2023/03/15 01:30:51;;;;;;;9.77;2.85;;;;;;;5.09;100.00;100758.97;5002323;28;20061;-79
2023/03/15 01:33:18;;;;;;;11.45;4.32;;;;;;;4.81;100.00;100757.53;5003249;28;20120;-76
2023/03/15 01:35:45;;;;;;;13.48;5.05;;;;;;;4.80;100.00;100773.19;5004531;28;20054;-76
2023/03/15 01:38:12;;;;;;;17.13;4.75;;;;;;;6.81;100.00;100781.38;5003827;28;20065;-77
2023/03/15 01:40:44;;;;;;;16.95;6.22;;;;;;;7.29;100.00;100774.97;5000126;28;20432;-78
2023/03/15 01:43:19;;;;;;;11.48;4.65;;;;;;;6.85;100.00;100773.19;5001642;28;20432;-79
2023/03/15 01:45:49;;;;;;;;;;;;;;;6.65;100.00;100774.44;5007466;28;20077;-77
2023/03/15 01:48:16;;;;;;;20.58;8.77;;;;;;;6.81;100.00;100780.56;5001989;28;20280;-76
2023/03/15 01:50:43;;;;;;;9.70;3.92;;;;;;;6.52;100.00;100775.81;5002448;28;20496;-77
2023/03/15 01:53:10;;;;;;;19.80;7.90;;;;;;;6.60;100.00;100783.00;5003970;28;20054;-77
2023/03/15 01:55:38;;;;;;;8.00;4.88;;;;;;;6.30;100.00;100791.16;5001990;28;20734;-78
2023/03/15 01:58:05;;;;;;;19.17;7.50;;;;;;;6.66;100.00;100798.03;5000745;28;20455;-78
2023/03/15 02:00:32;;;;;;;18.98;8.88;;;;;;;5.09;100.00;100797.34;4999833;28;20053;-79
2023/03/15 02:03:07;;;;;;;28.92;13.23;;;;;;;6.58;100.00;100807.31;4996658;28;20054;-77
2023/03/15 02:05:44;;;;;;;24.38;12.35;;;;;;;6.62;100.00;100797.94;5002743;28;20289;-80
2023/03/15 02:08:16;;;;;;;14.57;7.72;;;;;;;4.96;100.00;100793.16;5002164;28;20164;-77
2023/03/15 02:10:46;;;;;;;15.43;6.95;;;;;;;6.08;100.00;100805.69;4998942;28;20042;-78
2023/03/15 02:13:18;;;;;;;13.45;6.28;;;;;;;7.11;100.00;100814.41;5003808;28;20060;-76
2023/03/15 02:15:45;;;;;;;14.00;6.28;;;;;;;4.94;100.00;100811.09;5001354;28;20054;-78
2023/03/15 02:18:13;;;;;;;15.02;6.90;;;;;;;4.89;100.00;100806.69;5002903;28;20069;-78
2023/03/15 02:20:45;;;;;;;10.25;4.43;;;;;;;4.77;100.00;100812.31;4999188;28;20137;-78
2023/03/15 02:23:14;;;;;;;14.63;6.60;;;;;;;4.70;100.00;100811.34;5003965;28;20057;-80
2023/03/15 02:25:45;;;;;;;17.90;6.72;;;;;;;4.80;100.00;100819.00;5001149;28;20234;-77
2023/03/15 02:28:14;;;;;;;12.02;5.45;;;;;;;4.97;100.00;100816.66;5018514;28;20041;-76
2023/03/15 02:30:42;;;;;;;18.08;8.93;;;;;;;6.62;100.00;100813.69;5001932;28;20049;-77
2023/03/15 02:33:19;;;;;;;16.80;7.45;;;;;;;7.18;100.00;100820.03;5021818;28;20133;-76
2023/03/15 02:35:46;;;;;;;7.60;3.45;;;;;;;6.49;100.00;100831.50;5007491;28;20060;-78
2023/03/15 02:38:12;;;;;;;14.73;7.32;;;;;;;4.95;100.00;100816.25;5010365;28;20455;-78
2023/03/15 02:40:39;;;;;;;14.18;6.07;;;;;;;5.00;100.00;100815.19;5010788;28;20037;-77
2023/03/15 02:43:12;;;;;;;10.73;4.60;;;;;;;4.84;100.00;100817.94;5009627;28;20045;-78
2023/03/15 02:45:39;;;;;;;16.88;7.72;;;;;;;4.99;100.00;100814.38;5009774;28;20050;-79
2023/03/15 02:48:07;;;;;;;19.67;11.05;;;;;;;4.88;100.00;100821.56;5010201;28;20103;-77
2023/03/15 02:50:34;;;;;;;12.73;5.82;;;;;;;4.83;100.00;100835.53;5009476;28;20133;-78
2023/03/15 02:53:01;;;;;;;19.60;10.40;;;;;;;5.01;100.00;100836.75;5010171;28;20049;-78
2023/03/15 02:55:31;;;;;;;25.75;11.85;;;;;;;5.01;100.00;100827.72;5009629;28;20157;-79
2023/03/15 02:57:59;;;;;;;16.88;9.48;;;;;;;4.96;100.00;100834.28;5008126;28;20474;-77
2023/03/15 03:00:27;;;;;;;22.40;11.38;;;;;;;4.86;100.00;100840.31;5010017;28;20061;-80
2023/03/15 03:02:54;;;;;;;22.40;12.18;;;;;;;4.99;100.00;100836.31;5009804;28;20056;-76
2023/03/15 03:05:21;;;;;;;25.65;13.57;;;;;;;4.98;100.00;100848.44;5009883;28;20038;-77
2023/03/15 03:07:49;;;;;;;26.50;13.52;;;;;;;4.96;100.00;100850.72;5009823;28;20054;-79
2023/03/15 03:10:18;;;;;;;27.67;12.90;;;;;;;4.98;100.00;100847.63;5009961;28;20069;-77
2023/03/15 03:12:45;;;;;;;24.85;13.57;;;;;;;5.01;100.00;100853.22;5009972;28;20117;-78
2023/03/15 03:15:12;;;;;;;24.23;12.65;;;;;;;5.03;100.00;100859.13;5008298;28;20050;-80
2023/03/15 03:17:39;;;;;;;13.52;6.63;;;;;;;4.92;100.00;100862.75;5008834;28;20050;-80
2023/03/15 03:20:08;;;;;;;23.90;10.60;;;;;;;4.97;100.00;100876.22;5009956;28;20038;-80
2023/03/15 03:22:36;;;;;;;19.88;10.52;;;;;;;4.96;100.00;100875.41;5008343;28;20076;-77
2023/03/15 03:25:05;;;;;;;25.27;14.38;;;;;;;5.11;100.00;100887.50;5009704;28;20057;-78
2023/03/15 03:27:35;;;;;;;23.38;13.00;;;;;;;5.10;100.00;100888.66;5009349;28;20423;-77
2023/03/15 03:30:03;;;;;;;6.72;3.58;;;;;;;4.99;100.00;100885.66;5009573;28;20045;-78
2023/03/15 03:32:30;;;;;;;24.25;11.85;;;;;;;5.07;100.00;100892.91;5000494;28;20425;-77
2023/03/15 03:34:57;;;;;;;24.95;13.82;;;;;;;5.12;100.00;100900.06;5006791;28;20084;-77
2023/03/15 03:37:24;;;;;;;25.08;12.95;;;;;;;5.14;100.00;100903.25;5007475;28;20581;-78
2023/03/15 03:39:51;;;;;;;25.50;12.43;;;;;;;7.45;100.00;100917.94;5008825;28;20046;-76
2023/03/15 03:42:17;;;;;;;18.75;8.52;;;;;;;7.78;100.00;100913.31;5008248;28;20491;-80
2023/03/15 03:44:44;;;;;;;9.93;4.57;;;;;;;7.56;100.00;100916.91;5008050;28;20064;-78
2023/03/15 03:47:10;;;;;;;20.60;10.70;;;;;;;7.43;100.00;100921.03;5007405;28;20057;-78
2023/03/15 03:49:37;;;;;;;13.05;6.53;;;;;;;6.73;100.00;100924.63;5008829;28;20050;-77
2023/03/15 03:52:03;;;;;;;20.85;10.02;;;;;;;6.29;100.00;100918.72;5008894;28;20483;-78
2023/03/15 03:54:30;;;;;;;21.60;10.77;;;;;;;4.93;100.00;100930.94;5008896;28;20060;-79
2023/03/15 03:56:57;;;;;;;23.65;10.98;;;;;;;5.20;100.00;100941.03;5008894;28;20050;-77
2023/03/15 03:59:24;;;;;;;17.95;9.40;;;;;;;4.64;100.00;100930.59;5008903;28;20054;-79
2023/03/15 04:01:50;;;;;;;24.23;10.57;;;;;;;4.82;100.00;100935.38;5006920;28;20057;-77
2023/03/15 04:04:17;;;;;;;7.82;4.28;;;;;;;4.79;100.00;100940.75;5008572;28;20049;-76
2023/03/15 04:06:44;;;;;;;21.40;12.13;;;;;;;7.72;100.00;100950.59;5008173;28;20050;-78
2023/03/15 04:09:12;;;;;;;22.60;11.55;;;;;;;5.10;100.00;100938.03;5008013;28;20754;-77
2023/03/15 04:11:43;;;;;;;17.95;9.07;;;;;;;7.98;100.00;100963.53;5001835;28;20041;-77
2023/03/15 04:14:12;;;;;;;15.23;7.38;;;;;;;7.73;100.00;100956.91;5007216;28;20065;-77
2023/03/15 04:16:39;;;;;;;24.25;11.55;;;;;;;8.11;100.00;100953.06;5007615;28;20048;-78
2023/03/15 04:19:07;;;;;;;22.27;11.30;;;;;;;8.34;100.00;100962.84;5007046;28;20046;-78
2023/03/15 04:21:33;;;;;;;23.30;11.00;;;;;;;5.54;100.00;100955.13;5008016;28;20088;-77
2023/03/15 04:24:01;;;;;;;21.52;10.27;;;;;;;5.58;100.00;100950.50;5009333;28;20049;-76
2023/03/15 04:26:28;;;;;;;17.63;8.57;;;;;;;8.16;100.00;100970.06;5005979;28;20074;-77
2023/03/15 04:28:56;;;;;;;20.52;9.88;;;;;;;7.13;100.00;100966.19;5008251;28;20077;-77
2023/03/15 04:31:27;;;;;;;25.00;10.35;;;;;;;8.17;100.00;100977.19;5007656;28;20061;-78
2023/03/15 04:33:54;;;;;;;23.60;10.48;;;;;;;8.42;100.00;100983.81;5007945;28;20041;-78
2023/03/15 04:36:21;;;;;;;20.90;10.23;;;;;;;8.16;100.00;100988.59;5008515;28;20420;-77
2023/03/15 04:38:48;;;;;;;21.48;9.35;;;;;;;8.20;100.00;100983.91;5007639;28;20144;-76
2023/03/15 04:41:17;;;;;;;23.65;8.02;;;;;;;8.01;100.00;100987.59;5008259;28;20476;-78
2023/03/15 04:43:43;;;;;;;20.42;8.23;;;;;;;7.98;100.00;100985.59;5006995;28;20053;-78
2023/03/15 04:46:10;;;;;;;21.52;8.85;;;;;;;8.10;100.00;100985.34;5005784;28;20049;-78
2023/03/15 04:48:37;;;;;;;20.50;8.10;;;;;;;8.19;100.00;100987.81;5007516;28;20045;-77
2023/03/15 04:51:03;;;;;;;23.50;8.30;;;;;;;8.06;100.00;100984.50;5007998;28;20041;-78
2023/03/15 04:53:30;;;;;;;20.20;8.50;;;;;;;7.81;100.00;100980.63;5006743;28;20049;-77
2023/03/15 04:55:56;;;;;;;21.88;9.60;;;;;;;7.43;100.00;100983.59;5008186;28;20046;-74
2023/03/15 04:58:23;;;;;;;20.00;9.13;;;;;;;7.90;100.00;100983.91;5007048;28;20050;-78
2023/03/15 05:00:52;;;;;;;20.42;10.15;;;;;;;7.42;100.00;100990.25;5007487;28;20046;-77
2023/03/15 05:03:19;;;;;;;22.02;8.00;;;;;;;7.93;100.00;100994.16;5006534;28;20057;-78
2023/03/15 05:05:45;;;;;;;19.83;7.65;;;;;;;8.28;100.00;101005.69;5007230;28;20057;-78
2023/03/15 05:08:12;;;;;;;17.08;7.10;;;;;;;8.29;100.00;101001.75;5007140;28;20062;-77
2023/03/15 05:10:38;;;;;;;17.77;6.85;;;;;;;8.15;100.00;101007.06;5012306;28;20152;-78
2023/03/15 05:13:05;;;;;;;17.52;8.10;;;;;;;6.40;100.00;101004.91;5006490;28;20050;-76
2023/03/15 05:15:31;;;;;;;18.88;7.45;;;;;;;6.78;100.00;101004.09;5007961;28;20050;-77
2023/03/15 05:17:58;;;;;;;19.70;7.07;;;;;;;6.36;100.00;101009.56;5007388;28;20046;-77
2023/03/15 05:20:24;;;;;;;16.70;7.32;;;;;;;7.19;100.00;101015.03;5006404;28;20049;-78
2023/03/15 05:22:52;;;;;;;16.48;6.60;;;;;;;7.82;100.00;101016.06;5006931;28;20104;-75
2023/03/15 05:25:18;;;;;;;17.20;6.45;;;;;;;7.33;100.00;101020.00;5007502;28;20837;-79
2023/03/15 05:27:45;;;;;;;15.93;6.00;;;;;;;7.36;100.00;101022.03;5006245;28;20492;-77
2023/03/15 05:30:15;;;;;;;15.20;6.10;;;;;;;6.34;100.00;101019.31;5007179;28;20045;-78
2023/03/15 05:32:43;;;;;;;16.27;6.22;;;;;;;7.58;100.00;101037.72;5007568;28;20069;-75
2023/03/15 05:35:12;;;;;;;17.48;6.47;;;;;;;7.98;100.00;101046.19;5007449;28;20408;-78
2023/03/15 05:37:39;;;;;;;18.67;6.53;;;;;;;7.49;100.00;101050.91;5005664;28;20161;-77
2023/03/15 05:40:10;;;;;;;18.92;8.32;;;;;;;6.73;100.00;101057.44;5004187;28;20053;-77
2023/03/15 05:42:36;;;;;;;22.15;10.32;;;;;;;7.62;100.00;101068.84;5005825;28;20538;-79
2023/03/15 05:45:03;;;;;;;24.38;12.20;;;;;;;6.46;100.00;101068.63;5005506;28;20060;-76
2023/03/15 05:47:30;;;;;;;22.60;11.32;;;;;;;6.65;100.00;101076.91;5007599;28;20523;-75
2023/03/15 05:49:59;;;;;;;23.13;12.18;;;;;;;7.67;100.00;101079.56;5005104;28;20053;-78
2023/03/15 05:52:25;;;;;;;20.17;10.38;;;;;;;7.86;100.00;101076.72;5006645;28;20496;-78
2023/03/15 05:54:52;;;;;;;24.95;13.02;;;;;;;8.08;100.00;101086.91;5006618;28;20068;-77
2023/03/15 05:57:18;;;;;;;23.20;12.52;;;;;;;8.16;100.00;101093.31;5006457;28;20046;-78
2023/03/15 05:59:45;;;;;;;24.15;13.55;;;;;;;7.07;100.00;101099.72;5006337;28;20092;-78
2023/03/15 06:02:11;;;;;;;26.88;14.48;;;;;;;7.14;100.00;101099.84;5007009;28;20046;-78
2023/03/15 06:04:38;;;;;;;30.60;15.02;;;;;;;8.34;100.00;101103.47;5007252;28;20153;-78
2023/03/15 06:07:04;;;;;;;25.17;14.05;;;;;;;8.56;100.00;101112.78;5010985;28;20073;-77
2023/03/15 06:09:31;;;;;;;22.85;13.38;;;;;;;8.50;100.00;101117.84;5011294;28;20048;-77
2023/03/15 06:11:58;;;;;;;22.63;12.13;;;;;;;8.30;100.00;101129.38;5009943;28;20064;-76
2023/03/15 06:14:26;;;;;;;26.42;13.05;;;;;;;6.81;100.00;101125.16;5010685;28;20049;-76
2023/03/15 06:16:52;;;;;;;26.02;14.07;;;;;;;7.08;100.00;101121.38;5009023;28;20089;-77
2023/03/15 06:19:20;;;;;;;18.70;9.38;;;;;;;8.27;100.00;101125.38;5010457;28;20496;-74
2023/03/15 06:21:47;;;;;;;31.02;13.77;;;;;;;8.28;100.00;101128.94;5008369;28;20042;-79
2023/03/15 06:24:14;;;;;;;27.95;14.55;;;;;;;8.09;100.00;101129.81;5009645;28;20044;-77
2023/03/15 06:26:40;;;;;;;28.05;15.13;;;;;;;8.19;100.00;101133.91;5010737;28;20053;-74
2023/03/15 06:29:07;;;;;;;25.85;11.88;;;;;;;7.50;100.00;101137.91;5010382;28;20050;-76
2023/03/15 06:31:33;;;;;;;29.00;14.25;;;;;;;8.60;100.00;101136.50;5009902;28;20057;-77
2023/03/15 06:34:00;;;;;;;27.42;13.07;;;;;;;8.37;100.00;101144.06;5008915;28;20064;-78
2023/03/15 06:36:26;;;;;;;26.20;11.40;;;;;;;8.31;100.00;101142.00;5009753;28;20050;-79
2023/03/15 06:38:53;;;;;;;25.88;12.40;;;;;;;8.14;100.00;101145.25;5010115;28;20046;-77
2023/03/15 06:41:20;;;;;;;28.00;12.30;;;;;;;8.16;100.00;101143.72;5010492;28;20041;-79
2023/03/15 06:43:46;;;;;;;24.50;10.55;;;;;;;8.46;100.00;101154.81;5010166;28;20052;-77
2023/03/15 06:46:13;;;;;;;24.08;10.13;;;;;;;8.59;100.00;101148.72;5010353;28;20050;-79
2023/03/15 06:48:41;;;;;;;31.88;11.40;;;;;;;8.22;100.00;101153.28;5010714;28;20060;-78
2023/03/15 06:51:08;;;;;;;21.67;9.68;;;;;;;8.81;100.00;101158.84;5008467;28;20050;-78
2023/03/15 06:53:34;;;;;;;21.73;9.50;;;;;;;8.81;100.00;101167.13;5009618;28;20050;-78
2023/03/15 06:56:01;;;;;;;20.67;8.60;;;;;;;8.38;100.00;101169.66;5010287;28;20058;-78
2023/03/15 06:58:27;;;;;;;21.27;8.98;;;;;;;8.82;100.00;101177.00;5008938;28;20049;-79
2023/03/15 07:00:54;;;;;;;22.83;9.15;;;;;;;8.14;100.00;101173.63;5010458;28;20041;-78
2023/03/15 07:03:21;;;;;;;20.35;9.20;;;;;;;7.00;100.00;101182.13;5009182;28;20388;-78
2023/03/15 07:05:51;;;;;;;28.88;9.35;;;;;;;8.67;100.00;101197.28;5008491;28;20520;-78
2023/03/15 07:08:18;;;;;;;24.73;9.98;;;;;;;8.16;100.00;101204.34;5009942;28;20062;-79
2023/03/15 07:10:45;;;;;;;20.70;8.68;;;;;;;9.05;100.00;101205.28;5008379;28;20037;-77
2023/03/15 07:13:12;;;;;;;23.05;9.52;;;;;;;7.87;100.00;101208.59;5009534;28;20077;-76
2023/03/15 07:15:39;;;;;;;22.25;10.30;;;;;;;7.28;100.00;101208.28;5005335;28;20484;-78
2023/03/15 07:18:06;;;;;;;26.58;9.95;;;;;;;8.10;100.00;101205.03;5000840;28;20126;-77
2023/03/15 07:20:32;;;;;;;22.60;7.45;;;;;;;7.04;100.00;101210.50;5009647;28;20061;-79
2023/03/15 07:23:02;;;;;;;23.70;9.27;;;;;;;9.23;100.00;101231.16;5003022;28;20049;-82
2023/03/15 07:25:29;;;;;;;20.88;8.65;;;;;;;9.27;100.00;101234.75;5008008;28;20468;-77
2023/03/15 07:27:55;;;;;;;19.83;7.93;;;;;;;9.38;100.00;101237.66;5009651;28;20049;-74
2023/03/15 07:30:22;;;;;;;22.45;8.55;;;;;;;9.42;100.00;101233.75;5009438;28;20042;-77
2023/03/15 07:32:48;;;;;;;18.67;9.15;;;;;;;9.49;100.00;101233.81;5008595;28;20280;-78
2023/03/15 07:35:16;;;;;;;20.73;8.30;;;;;;;9.37;100.00;101225.81;5009103;28;20060;-77
2023/03/15 07:37:43;;;;;;;20.77;8.27;;;;;;;9.71;100.00;101234.88;5008541;28;20101;-77
2023/03/15 07:40:11;;;;;;;22.75;8.32;;;;;;;9.12;100.00;101226.69;5010442;28;20057;-77
2023/03/15 07:42:41;;;;;;;19.00;8.18;;;;;;;8.15;100.00;101235.03;5008363;28;20141;-77
2023/03/15 07:45:09;;;;;;;19.95;8.95;;;;;;;9.58;100.00;101241.81;5007219;28;20137;-77
2023/03/15 07:47:35;;;;;;;24.90;9.63;;;;;;;9.51;100.00;101245.31;5009703;28;20429;-77
2023/03/15 07:50:04;;;;;;;23.00;8.45;;;;;;;8.88;100.00;101258.28;5012415;28;20463;-76
2023/03/15 07:52:30;;;;;;;22.20;9.90;;;;;;;9.60;100.00;101262.41;5004710;28;20046;-77
2023/03/15 07:54:57;;;;;;;23.38;8.40;;;;;;;6.72;100.00;101264.81;5009034;28;20053;-78
2023/03/15 07:57:23;;;;;;;24.63;9.32;;;;;;;7.94;100.00;101268.56;5008049;28;20873;-79
2023/03/15 07:59:53;;;;;;;17.60;6.57;;;;;;;6.64;100.00;101279.56;5006623;28;20124;-76
2023/03/15 08:02:20;;;;;;;26.88;10.98;;;;;;;9.33;100.00;101282.16;5007056;28;20046;-77
2023/03/15 08:04:49;;;;;;;23.60;10.43;;;;;;;9.76;100.00;101298.09;5007711;28;20096;-78
2023/03/15 08:07:16;;;;;;;25.67;10.07;;;;;;;8.08;100.00;101293.59;5006581;28;20432;-77
2023/03/15 08:09:43;;;;;;;20.35;8.43;;;;;;;8.73;100.00;101305.34;5007222;28;20132;-78
2023/03/15 08:12:12;;;;;;;21.42;9.45;;;;;;;8.83;100.00;101313.81;5006094;28;20132;-73
2023/03/15 08:14:39;;;;;;;26.92;10.18;;;;;;;8.80;100.00;101317.31;5006223;28;20095;-74
2023/03/15 08:17:05;;;;;;;26.65;10.50;;;;;;;10.02;100.00;101326.41;5003943;28;20053;-73
2023/03/15 08:19:32;;;;;;;26.58;11.15;;;;;;;9.79;100.00;101324.97;4998192;28;20492;-76
2023/03/15 08:21:58;;;;;;;24.65;10.70;;;;;;;10.12;100.00;101333.25;5004596;28;20060;-76
2023/03/15 08:24:25;;;;;;;28.73;10.85;;;;;;;10.16;100.00;101332.13;5007732;28;20042;-75
2023/03/15 08:26:52;;;;;;;34.83;14.15;;;;;;;8.79;100.00;101334.22;5008897;28;20793;-74
2023/03/15 08:29:18;;;;;;;30.23;12.30;;;;;;;10.89;100.00;101336.72;5005192;28;20049;-74
2023/03/15 08:31:45;;;;;;;31.77;14.25;;;;;;;9.91;100.00;101333.81;5007043;28;20046;-74
2023/03/15 08:34:12;;;;;;;30.20;12.93;;;;;;;10.33;100.00;101337.03;5005553;28;20695;-73
2023/03/15 08:36:38;;;;;;;26.63;11.77;;;;;;;10.33;100.00;101337.03;5014655;28;20064;-74
2023/03/15 08:39:05;;;;;;;30.52;14.32;;;;;;;10.64;100.00;101352.34;5001780;28;20073;-73
2023/03/15 08:41:31;;;;;;;33.20;13.25;;;;;;;9.34;100.00;101345.31;5000849;28;20492;-71
2023/03/15 08:43:58;;;;;;;26.83;13.07;;;;;;;10.18;100.00;101362.97;5004633;28;20056;-74
2023/03/15 08:46:25;;;;;;;31.30;13.90;;;;;;;7.53;100.00;101349.19;5004239;28;20501;-74
2023/03/15 08:48:52;;;;;;;33.40;14.75;;;;;;;10.60;100.00;101370.91;5005449;28;20058;-72
2023/03/15 08:51:20;;;;;;;15.80;5.68;;;;;;;9.79;100.00;101367.22;5006471;28;20046;-73
2023/03/15 08:53:47;;;;;;;32.80;13.68;;;;;;;10.22;100.00;101372.09;5005864;28;20049;-73
2023/03/15 08:56:13;;;;;;;35.90;15.57;;;;;;;8.22;100.00;101362.00;5006564;28;20142;-74
2023/03/15 08:58:40;;;;;;;38.03;16.67;;;;;;;7.08;100.00;101365.47;5005815;28;20050;-73
2023/03/15 09:01:09;;;;;;;37.22;17.35;;;;;;;7.56;100.00;101376.00;5004052;28;20038;-73
2023/03/15 09:03:36;;;;;;;31.48;14.30;;;;;;;8.37;100.00;101388.69;5006266;28;20046;-73
2023/03/15 09:06:02;;;;;;;33.30;15.40;;;;;;;10.53;100.00;101390.19;5008774;28;20046;-73
2023/03/15 09:08:29;;;;;;;36.42;15.60;;;;;;;9.94;100.00;101384.78;5002177;28;20045;-73
2023/03/15 09:10:56;;;;;;;29.50;11.95;;;;;;;10.46;100.00;101392.88;5005279;28;20058;-73
2023/03/15 09:13:23;;;;;;;23.35;10.05;;;;;;;10.71;100.00;101398.66;5018748;28;20626;-73
2023/03/15 09:15:53;;;;;;;23.75;9.10;;;;;;;10.60;100.00;101400.53;4996660;28;20053;-72
2023/03/15 09:18:21;;;;;;;26.17;9.10;;;;;;;9.06;100.00;101383.56;5003500;28;20050;-73
2023/03/15 09:20:47;;;;;;;18.70;6.97;;;;;;;10.66;100.00;101394.25;5003876;28;20045;-74
2023/03/15 09:23:14;;;;;;;37.40;8.80;;;;;;;10.45;100.00;101397.63;5001589;28;20049;-75
2023/03/15 09:25:41;;;;;;;7.47;2.92;;;;;;;10.68;100.00;101393.88;5002727;28;20045;-72
2023/03/15 09:28:10;;;;;;;31.80;12.05;;;;;;;10.68;100.00;101407.72;5004635;28;20843;-73
2023/03/15 09:30:38;;;;;;;25.58;11.65;;;;;;;8.87;100.00;101405.72;5006432;28;20068;-73
2023/03/15 09:33:05;;;;;;;22.98;9.13;;;;;;;11.24;100.00;101417.28;5005899;28;20052;-73
2023/03/15 09:35:33;;;;;;;21.33;8.82;;;;;;;10.86;100.00;101409.47;5003863;28;20462;-74
2023/03/15 09:37:59;;;;;;;30.27;10.93;;;;;;;8.71;100.00;101398.75;5005536;28;20064;-74
2023/03/15 09:40:32;;;;;;;28.38;10.57;;;;;;;8.18;100.00;101405.22;5005887;28;20449;-73
2023/03/15 09:43:13;;;;;;;27.73;11.40;;;;;;;11.31;100.00;101414.56;5005182;28;20060;-72
2023/03/15 09:45:52;;;;;;;14.55;4.88;;;;;;;11.01;100.00;101421.47;4998794;28;20050;-72
2023/03/15 09:48:26;;;;;;;11.63;4.00;;;;;;;10.88;100.00;101420.16;5005477;28;20065;-73
2023/03/15 09:51:02;;;;;;;26.02;9.63;;;;;;;11.13;100.00;101419.19;5003933;28;20057;-72
2023/03/15 09:53:49;;;;;;;22.13;7.90;;;;;;;11.12;100.00;101419.56;5003520;28;20060;-74
2023/03/15 09:56:25;;;;;;;6.13;2.65;;;;;;;11.73;100.00;101419.63;5007412;28;20504;-71
2023/03/15 09:58:55;;;;;;;;;;;;;;;11.99;100.00;101422.13;5005804;28;20053;-72
2023/03/15 10:01:44;;;;;;;13.18;5.28;;;;;;;11.76;100.00;101416.88;4997340;28;20387;-73
2023/03/15 10:04:28;;;;;;;17.67;6.88;;;;;;;12.05;100.00;101415.81;4998499;28;20069;-71
2023/03/15 10:07:01;;;;;;;23.25;6.65;;;;;;;12.03;100.00;101423.75;4997720;28;20549;-74
2023/03/15 10:09:32;;;;;;;20.92;7.03;;;;;;;10.96;100.00;101419.03;5005219;28;20052;-72
2023/03/15 10:12:08;;;;;;;23.02;6.90;;;;;;;11.49;100.00;101421.03;5001701;28;20065;-72
2023/03/15 10:14:50;;;;;;;22.88;8.30;;;;;;;11.64;100.00;101425.50;5005334;28;20419;-72
2023/03/15 10:17:31;;;;;;;20.08;7.55;;;;;;;10.79;100.00;101425.22;5004152;28;20100;-72
2023/03/15 10:20:03;;;;;;;21.60;7.97;;;;;;;11.63;100.00;101426.69;5001287;28;20050;-73
2023/03/15 10:22:44;;;;;;;22.75;8.93;;;;;;;11.54;100.00;101422.66;5002028;28;20176;-73
2023/03/15 10:25:11;;;;;;;2.78;1.17;;;;;;;11.21;100.00;101425.59;5005797;28;20147;-72
2023/03/15 10:27:54;;;;;;;24.15;6.78;;;;;;;10.10;100.00;101415.81;5006369;28;20056;-70
2023/03/15 10:30:27;;;;;;;25.73;8.25;;;;;;;8.40;100.00;101410.00;5004282;28;20505;-72
2023/03/15 10:33:00;;;;;;;17.83;5.75;;;;;;;9.01;100.00;101408.72;5002610;28;20045;-72
2023/03/15 10:35:27;;;;;;;18.83;6.45;;;;;;;8.42;100.00;101407.66;5004436;28;20077;-71
2023/03/15 10:37:54;;;;;;;9.05;3.60;;;;;;;8.57;100.00;101404.03;5005554;28;20049;-73
2023/03/15 10:40:40;;;;;;;14.35;3.55;;;;;;;8.65;100.00;101417.56;5002214;28;20050;-71
2023/03/15 10:43:19;;;;;;;20.75;5.47;;;;;;;9.99;100.00;101414.88;4999582;28;20054;-71
2023/03/15 10:45:58;;;;;;;11.07;4.65;;;;;;;9.57;100.00;101409.56;5000030;28;20058;-72
2023/03/15 10:48:25;;;;;;;8.88;2.83;;;;;;;9.77;100.00;101413.00;5000594;28;20566;-71
2023/03/15 10:50:53;;;;;;;11.00;2.45;;;;;;;10.05;100.00;101419.69;5000697;28;20052;-72
2023/03/15 10:53:20;;;;;;;10.98;2.78;;;;;;;9.81;100.00;101417.41;5003499;28;20049;-71
2023/03/15 10:55:48;;;;;;;6.85;2.88;;;;;;;12.13;100.00;101427.72;5003957;28;20052;-69
2023/03/15 10:58:17;;;;;;;11.40;3.35;;;;;;;12.67;100.00;101419.97;5002935;28;20052;-72
2023/03/15 11:01:11;;;;;;;16.92;4.97;;;;;;;13.19;100.00;101425.97;5004539;28;20054;-73
2023/03/15 11:03:40;;;;;;;4.72;1.48;;;;;;;10.33;100.00;101417.25;5002532;28;20056;-73
2023/03/15 11:06:20;;;;;;;11.20;2.55;;;;;;;12.57;100.00;101431.03;5002633;28;20164;-71
2023/03/15 11:08:46;;;;;;;3.72;1.75;;;;;;;10.14;100.00;101422.97;5005987;28;20064;-72
2023/03/15 11:11:13;;;;;;;7.75;2.58;;;;;;;10.67;100.00;101431.06;5010813;28;20707;-72
2023/03/15 11:13:41;;;;;;;13.98;3.15;;;;;;;10.82;100.00;101432.75;5009590;28;20046;-74
2023/03/15 11:16:20;;;;;;;6.10;2.42;;;;;;;10.68;100.00;101433.44;5008915;28;20041;-70
2023/03/15 11:19:02;;;;;;;2.30;1.05;;;;;;;10.60;100.00;101431.78;5009348;28;20054;-72
2023/03/15 11:21:35;;;;;;;11.05;3.20;;;;;;;10.75;100.00;101427.16;5002956;28;20057;-70